Time;durP1;ratioP1;P1;durP2;ratioP2;P2;SDS_P1;SDS_P2;PMS_P1;PMS_P2;Temp;Humidity;BMP_temperature;BMP_pressure;BME280_temperature;BME280_humidity;BME280_pressure;Samples;Min_cycle;Max_cycle;Signal;HPM_P1;HPM_P2
2021/11/16 01:46:44;;;;;;;2.85;0.60;;;20.70;97.40;;;;;;5047459;27;20832;-66
2021/11/16 01:49:12;;;;;;;4.35;0.70;;;20.60;99.00;;;;;;5026178;28;20091;-68
2021/11/16 01:51:39;;;;;;;4.43;0.57;;;20.90;98.10;;;;;;5024234;28;20461;-67
2021/11/16 01:54:07;;;;;;;3.83;0.32;;;20.90;98.10;;;;;;5035533;28;20021;-67
2021/11/16 01:56:41;;;;;;;3.15;0.40;;;20.70;97.90;;;;;;5027581;28;20034;-67
2021/11/16 01:59:09;;;;;;;3.55;0.95;;;20.50;98.50;;;;;;5031803;28;20026;-66
2021/11/16 02:01:37;;;;;;;3.65;0.60;;;20.40;98.40;;;;;;5034260;28;20040;-67
2021/11/16 02:04:06;;;;;;;6.55;0.47;;;20.10;98.10;;;;;;5036918;28;20021;-68
2021/11/16 02:06:37;;;;;;;4.50;0.60;;;20.60;98.90;;;;;;5026192;28;20490;-68
2021/11/16 02:09:08;;;;;;;5.10;0.50;;;20.80;97.10;;;;;;5033973;28;20084;-67
2021/11/16 02:11:37;;;;;;;8.10;1.15;;;20.60;97.50;;;;;;5026051;28;20029;-67
2021/11/16 02:14:07;;;;;;;4.80;0.68;;;20.50;98.10;;;;;;5032401;28;20033;-67
2021/11/16 02:16:38;;;;;;;6.78;1.02;;;20.20;97.70;;;;;;5037405;28;20036;-67
2021/11/16 02:19:08;;;;;;;3.78;0.40;;;20.30;98.30;;;;;;5028607;28;20030;-67
2021/11/16 02:21:36;;;;;;;4.30;0.75;;;20.30;97.30;;;;;;5025935;28;20018;-67
2021/11/16 02:24:05;;;;;;;2.80;0.57;;;20.30;97.60;;;;;;5030984;28;20045;-67
2021/11/16 02:26:34;;;;;;;6.45;0.85;;;20.30;97.60;;;;;;5020007;28;20041;-68
2021/11/16 02:29:02;;;;;;;4.70;1.30;;;20.20;97.60;;;;;;5020572;28;20108;-67
2021/11/16 02:31:31;;;;;;;4.20;0.63;;;20.60;98.50;;;;;;5030999;28;20097;-67
2021/11/16 02:33:58;;;;;;;3.53;0.40;;;20.40;98.40;;;;;;5021342;28;20029;-67
2021/11/16 02:36:31;;;;;;;1.83;0.30;;;20.50;97.10;;;;;;5016333;28;20022;-67
2021/11/16 02:38:58;;;;;;;4.45;1.13;;;20.70;96.90;;;;;;5026758;28;20029;-67
2021/11/16 02:41:31;;;;;;;4.72;0.75;;;20.90;97.60;;;;;;5043377;28;20512;-67
2021/11/16 02:44:06;;;;;;;7.70;0.90;;;21.00;96.80;;;;;;5035658;28;20038;-67
2021/11/16 02:46:34;;;;;;;5.97;0.98;;;20.80;96.70;;;;;;5022818;28;20497;-68
2021/11/16 02:49:02;;;;;;;6.50;0.60;;;20.60;96.70;;;;;;5011381;28;20022;-68
2021/11/16 02:51:34;;;;;;;3.40;0.60;;;20.30;96.80;;;;;;5023796;28;20030;-66
2021/11/16 02:54:10;;;;;;;6.00;0.57;;;20.30;97.10;;;;;;5042393;28;20056;-68
2021/11/16 02:56:37;;;;;;;6.38;0.50;;;20.40;97.10;;;;;;5029496;28;20064;-67
2021/11/16 02:59:05;;;;;;;2.42;0.47;;;20.30;96.40;;;;;;5012323;28;20030;-66
2021/11/16 03:01:33;;;;;;;5.35;0.70;;;20.20;96.60;;;;;;5025533;28;20033;-68
2021/11/16 03:04:00;;;;;;;4.25;0.82;;;20.10;96.60;;;;;;5005519;28;20393;-68
2021/11/16 03:06:28;;;;;;;3.65;0.50;;;19.70;96.90;;;;;;5004546;28;20022;-69
2021/11/16 03:08:56;;;;;;;8.18;1.25;;;19.70;97.10;;;;;;5006317;28;20038;-68
2021/11/16 03:11:24;;;;;;;5.03;0.75;;;19.90;97.20;;;;;;4998620;28;20030;-70
2021/11/16 03:13:51;;;;;;;5.95;0.63;;;20.00;97.10;;;;;;4995578;28;20034;-69
2021/11/16 03:16:21;;;;;;;4.35;0.52;;;20.00;96.80;;;;;;5000511;28;20022;-69
2021/11/16 03:18:51;;;;;;;5.10;0.60;;;20.00;97.00;;;;;;5014805;28;20121;-68
2021/11/16 03:21:21;;;;;;;3.28;0.65;;;20.10;97.30;;;;;;5003279;28;20087;-68
2021/11/16 03:23:50;;;;;;;4.18;0.50;;;19.80;97.10;;;;;;4994904;28;20018;-68
2021/11/16 03:26:22;;;;;;;3.38;0.43;;;19.90;97.10;;;;;;4996622;28;20026;-68
2021/11/16 03:28:51;;;;;;;3.45;1.30;;;20.00;97.30;;;;;;4995743;28;20034;-69
2021/11/16 03:31:21;;;;;;;2.80;0.50;;;19.50;97.50;;;;;;5012179;28;20037;-69
2021/11/16 03:33:50;;;;;;;4.65;0.60;;;19.30;97.50;;;;;;5000947;28;20033;-68
2021/11/16 03:36:19;;;;;;;6.63;0.60;;;19.40;97.70;;;;;;5001150;28;20037;-68
2021/11/16 03:38:48;;;;;;;1.55;0.30;;;19.40;98.30;;;;;;4995006;28;20030;-68
2021/11/16 03:41:15;;;;;;;5.70;0.50;;;19.50;97.90;;;;;;4995182;28;20045;-70
2021/11/16 03:43:45;;;;;;;3.47;0.55;;;19.20;97.50;;;;;;4995106;28;20374;-69
2021/11/16 03:46:12;;;;;;;6.80;0.75;;;19.10;97.50;;;;;;5011246;28;20425;-68
2021/11/16 03:48:40;;;;;;;4.13;0.40;;;19.10;98.20;;;;;;4995407;28;20053;-68
2021/11/16 03:51:07;;;;;;;3.92;1.10;;;19.20;97.60;;;;;;5008103;28;20070;-68
2021/11/16 03:53:35;;;;;;;4.85;0.50;;;19.10;97.30;;;;;;4997184;28;20101;-68
2021/11/16 03:56:03;;;;;;;5.43;0.85;;;19.00;97.50;;;;;;5004435;28;20026;-68
2021/11/16 03:58:30;;;;;;;5.68;0.82;;;18.80;98.00;;;;;;5011734;28;20478;-68
2021/11/16 04:01:01;;;;;;;3.20;0.45;;;18.80;97.60;;;;;;5008879;28;20029;-68
2021/11/16 04:03:31;;;;;;;8.52;1.08;;;18.80;97.50;;;;;;5008780;28;20112;-69
2021/11/16 04:05:59;;;;;;;3.55;0.38;;;18.70;97.90;;;;;;5009574;28;20076;-68
2021/11/16 04:08:27;;;;;;;4.15;0.47;;;18.80;97.50;;;;;;5010014;28;20389;-69
2021/11/16 04:10:55;;;;;;;4.18;0.70;;;18.90;97.40;;;;;;5002170;28;20022;-69
2021/11/16 04:13:22;;;;;;;2.80;0.47;;;18.80;97.70;;;;;;4994695;28;20037;-69
2021/11/16 04:15:50;;;;;;;5.85;0.77;;;18.60;97.50;;;;;;4995365;28;20046;-68
2021/11/16 04:18:20;;;;;;;4.22;0.40;;;18.80;98.00;;;;;;4996555;28;20033;-66
2021/11/16 04:20:50;;;;;;;3.63;0.68;;;18.80;97.10;;;;;;5009127;28;20026;-67
2021/11/16 04:23:19;;;;;;;3.38;0.70;;;18.60;97.50;;;;;;5005838;28;20081;-68
2021/11/16 04:25:47;;;;;;;3.60;0.20;;;18.30;97.10;;;;;;5005127;28;20466;-67
2021/11/16 04:28:16;;;;;;;3.72;0.50;;;18.40;97.30;;;;;;4996319;28;20033;-69
2021/11/16 04:30:45;;;;;;;3.35;0.35;;;18.40;97.30;;;;;;4994504;28;20382;-69
2021/11/16 04:33:14;;;;;;;3.92;0.98;;;18.70;97.50;;;;;;5002946;28;20077;-70
2021/11/16 04:35:42;;;;;;;7.32;0.95;;;18.80;97.50;;;;;;4999683;28;20030;-69
2021/11/16 04:38:11;;;;;;;5.07;0.80;;;18.80;97.20;;;;;;4994657;28;20113;-72
2021/11/16 04:40:42;;;;;;;8.02;0.85;;;18.70;97.80;;;;;;4994332;28;20035;-73
2021/11/16 04:43:17;;;;;;;4.13;0.70;;;18.60;97.20;;;;;;5006210;28;20034;-73
2021/11/16 04:45:48;;;;;;;4.10;0.60;;;18.70;97.70;;;;;;5009345;28;20049;-73
2021/11/16 04:59:48;;;;;;;2.40;0.38;;;18.40;97.80;;;;;;5006917;28;20491;-69
2021/11/16 05:05:08;;;;;;;7.88;0.70;;;18.40;97.70;;;;;;5008547;28;20405;-67
2021/11/16 05:07:37;;;;;;;3.70;0.63;;;18.40;97.80;;;;;;5008953;28;20105;-67
2021/11/16 05:10:07;;;;;;;4.53;0.55;;;18.20;98.30;;;;;;5000933;28;20363;-67
2021/11/16 05:12:36;;;;;;;6.28;0.77;;;18.40;97.70;;;;;;5010455;28;20018;-67
2021/11/16 05:15:14;;;;;;;4.97;0.60;;;18.60;97.80;;;;;;5011501;28;20136;-67
2021/11/16 05:17:46;;;;;;;6.15;0.57;;;18.70;97.90;;;;;;5011734;28;20026;-67
2021/11/16 05:20:14;;;;;;;3.42;0.65;;;18.30;97.90;;;;;;5011516;28;20378;-67
2021/11/16 05:22:44;;;;;;;3.92;0.60;;;18.50;98.20;;;;;;5007088;28;20056;-68
2021/11/16 05:25:12;;;;;;;3.85;0.50;;;18.30;98.20;;;;;;5008514;28;20038;-68
2021/11/16 05:27:40;;;;;;;5.13;0.82;;;18.30;98.40;;;;;;4995858;28;20050;-69
2021/11/16 05:30:12;;;;;;;6.63;0.90;;;18.30;98.10;;;;;;5007781;28;20162;-70
2021/11/16 05:32:41;;;;;;;6.22;0.80;;;18.40;98.50;;;;;;5018458;28;20082;-69
2021/11/16 05:35:10;;;;;;;6.55;0.98;;;18.60;98.40;;;;;;5010070;28;20033;-68
2021/11/16 05:37:40;;;;;;;6.82;1.40;;;18.80;98.40;;;;;;4997012;28;20027;-70
2021/11/16 05:40:08;;;;;;;4.80;0.65;;;18.70;98.70;;;;;;5000352;28;20018;-70
2021/11/16 05:42:36;;;;;;;3.88;0.75;;;18.30;98.60;;;;;;5009065;28;20038;-70
2021/11/16 05:45:04;;;;;;;5.68;0.85;;;18.50;98.60;;;;;;4992967;28;20108;-68
2021/11/16 05:47:33;;;;;;;4.85;1.27;;;18.40;98.90;;;;;;5007916;28;20065;-70
2021/11/16 05:50:00;;;;;;;2.03;0.90;;;18.30;99.10;;;;;;5011395;28;20117;-69
2021/11/16 05:52:28;;;;;;;3.30;0.40;;;18.50;99.10;;;;;;4993851;28;20058;-69
2021/11/16 05:54:56;;;;;;;6.60;0.60;;;18.90;98.60;;;;;;4993166;28;20030;-69
2021/11/16 05:57:23;;;;;;;3.33;1.23;;;19.40;99.10;;;;;;4996823;28;20059;-70
2021/11/16 05:59:50;;;;;;;8.43;0.82;;;19.10;98.90;;;;;;5000036;28;20113;-70
2021/11/16 06:02:18;;;;;;;5.72;1.05;;;18.80;99.00;;;;;;5008648;28;20084;-69
2021/11/16 06:04:45;;;;;;;4.35;0.68;;;18.80;99.00;;;;;;5000243;28;20039;-70
2021/11/16 06:07:13;;;;;;;6.72;1.27;;;18.40;99.90;;;;;;4997147;28;20100;-70
2021/11/16 06:09:42;;;;;;;6.22;1.48;;;18.70;99.50;;;;;;4992850;28;20061;-70
2021/11/16 06:12:11;;;;;;;9.70;0.80;;;18.70;99.10;;;;;;4997167;28;20022;-70
2021/11/16 06:14:39;;;;;;;7.30;1.02;;;19.10;99.00;;;;;;4992844;28;20398;-69
2021/11/16 06:17:07;;;;;;;4.90;0.70;;;19.20;98.80;;;;;;5006048;28;20034;-70
2021/11/16 06:19:35;;;;;;;5.88;1.42;;;18.40;99.60;;;;;;5011042;28;20026;-69
2021/11/16 06:22:07;;;;;;;6.72;1.05;;;18.00;99.90;;;;;;4998937;28;20368;-70
2021/11/16 06:24:35;;;;;;;7.72;0.88;;;18.20;99.90;;;;;;5027064;28;20044;-70
2021/11/16 06:27:03;;;;;;;4.82;0.68;;;18.20;99.50;;;;;;4999766;28;20509;-70
2021/11/16 06:29:31;;;;;;;4.05;1.00;;;18.20;99.90;;;;;;5007069;28;20041;-70
2021/11/16 06:31:58;;;;;;;4.93;1.10;;;18.10;99.50;;;;;;5012894;28;20072;-70
2021/11/16 06:34:26;;;;;;;2.88;0.90;;;17.80;99.90;;;;;;5014711;28;20169;-70
2021/11/16 06:36:53;;;;;;;4.55;1.23;;;18.20;99.40;;;;;;5015975;28;20438;-70
2021/11/16 06:39:22;;;;;;;7.45;1.10;;;18.10;99.80;;;;;;5015698;28;20065;-70
2021/11/16 06:41:51;;;;;;;5.35;0.52;;;18.40;99.90;;;;;;5009704;28;20102;-70
2021/11/16 06:44:21;;;;;;;8.32;0.75;;;19.30;99.20;;;;;;5026840;28;20030;-70
2021/11/16 06:46:50;;;;;;;5.15;0.77;;;19.00;99.10;;;;;;4997864;28;20034;-70
2021/11/16 06:49:18;;;;;;;3.97;0.80;;;18.80;99.10;;;;;;5012473;28;20457;-70
2021/11/16 06:51:48;;;;;;;5.97;1.05;;;18.30;99.90;;;;;;5001826;28;20038;-70
2021/11/16 06:54:19;;;;;;;4.15;0.82;;;17.90;99.90;;;;;;5004814;28;20026;-67
2021/11/16 06:56:49;;;;;;;2.97;0.45;;;17.30;99.90;;;;;;5010842;28;20084;-68
2021/11/16 06:59:21;;;;;;;2.45;0.60;;;17.20;99.90;;;;;;5015569;28;20105;-67
2021/11/16 07:01:49;;;;;;;4.18;0.75;;;17.30;99.90;;;;;;5009238;28;20430;-67
2021/11/16 07:04:16;;;;;;;9.07;1.42;;;17.10;99.90;;;;;;5010676;28;20033;-67
2021/11/16 07:06:50;;;;;;;2.25;0.50;;;17.70;99.90;;;;;;5007849;28;20054;-67
2021/11/16 07:09:19;;;;;;;7.75;0.65;;;17.60;99.90;;;;;;5003176;28;20049;-66
2021/11/16 07:11:48;;;;;;;5.55;1.17;;;17.30;99.90;;;;;;5009486;28;20030;-68
2021/11/16 07:14:18;;;;;;;9.05;1.55;;;17.40;99.90;;;;;;5008813;28;20045;-68
2021/11/16 07:16:55;;;;;;;6.53;0.70;;;17.40;99.90;;;;;;4998609;28;20062;-68
2021/11/16 07:19:33;;;;;;;3.45;0.43;;;17.60;99.90;;;;;;4998685;28;20022;-67
2021/11/16 07:22:03;;;;;;;5.10;0.60;;;17.10;99.90;;;;;;5016214;28;20475;-68
2021/11/16 07:24:32;;;;;;;5.45;0.50;;;16.80;99.90;;;;;;5011043;28;20038;-67
2021/11/16 07:27:05;;;;;;;1.90;0.38;;;16.60;99.90;;;;;;5005424;28;20088;-68
2021/11/16 07:29:59;;;;;;;4.43;0.60;;;16.50;99.90;;;;;;5013904;28;20101;-68
2021/11/16 07:32:29;;;;;;;5.35;0.75;;;16.50;99.90;;;;;;5003692;28;20733;-68
2021/11/16 07:35:00;;;;;;;10.20;1.00;;;16.50;99.90;;;;;;5011398;28;20148;-68
2021/11/16 07:37:34;;;;;;;11.60;1.15;;;16.50;99.90;;;;;;5011273;28;20025;-67
2021/11/16 07:40:04;;;;;;;;;;;16.60;99.90;;;;;;5013478;28;20021;-67
2021/11/16 07:42:37;;;;;;;6.50;0.98;;;16.60;99.90;;;;;;5008845;28;19973;-68
2021/11/16 07:45:17;;;;;;;4.82;1.35;;;16.40;99.90;;;;;;5007630;28;20050;-67
2021/11/16 07:47:48;;;;;;;3.78;0.70;;;16.30;99.90;;;;;;5005867;28;20026;-67
2021/11/16 07:50:37;;;;;;;7.20;0.57;;;16.30;99.90;;;;;;5021574;28;20023;-67
2021/11/16 07:53:15;;;;;;;5.55;1.08;;;16.40;99.90;;;;;;5008835;28;20335;-67
2021/11/16 07:56:10;;;;;;;4.47;0.57;;;16.40;99.90;;;;;;5001161;28;20015;-67
2021/11/16 07:58:53;;;;;;;4.93;1.00;;;16.30;99.90;;;;;;4998267;28;20425;-67
2021/11/16 08:02:13;;;;;;;4.43;0.75;;;16.30;99.90;;;;;;5001738;28;20034;-67
2021/11/16 08:04:28;;;;;;;7.57;1.38;;;16.30;99.90;;;;;;5027564;28;20042;-67
2021/11/16 08:12:53;;;;;;;6.60;0.93;;;16.10;99.90;;;;;;5014590;28;20041;-67
2021/11/16 08:15:07;;;;;;;5.80;0.60;;;16.10;99.90;;;;;;5002011;28;20053;-67
2021/11/16 08:17:36;;;;;;;3.85;0.93;;;16.20;99.90;;;;;;4996415;28;20112;-69
2021/11/16 08:20:10;;;;;;;3.10;1.42;;;16.10;99.90;;;;;;4997854;28;20019;-68
2021/11/16 08:22:37;;;;;;;;;;;16.00;99.90;;;;;;4995656;28;20072;-68
2021/11/16 08:25:06;;;;;;;4.15;0.65;;;16.00;99.90;;;;;;5012857;28;19965;-68
2021/11/16 08:27:40;;;;;;;4.57;0.50;;;16.10;99.90;;;;;;4999127;28;20382;-68
2021/11/16 08:30:14;;;;;;;5.53;0.70;;;16.10;99.90;;;;;;5011940;28;20013;-68
2021/11/16 08:32:44;;;;;;;4.35;1.38;;;16.00;99.90;;;;;;5001389;28;20121;-68
2021/11/16 08:35:21;;;;;;;12.18;1.40;;;16.00;99.90;;;;;;5013020;28;20034;-67
2021/11/16 08:37:49;;;;;;;7.07;0.60;;;16.00;99.90;;;;;;5013587;28;20026;-68
2021/11/16 08:40:23;;;;;;;5.07;0.90;;;16.00;99.90;;;;;;5013332;28;20490;-67
2021/11/16 08:43:15;;;;;;;3.60;0.90;;;16.00;99.90;;;;;;4999192;28;20110;-67
2021/11/16 08:45:48;;;;;;;2.85;0.70;;;15.90;99.90;;;;;;5010501;28;20050;-67
2021/11/16 08:48:21;;;;;;;2.97;0.77;;;15.80;99.90;;;;;;5013466;28;20413;-67
2021/11/16 08:51:11;;;;;;;6.80;0.80;;;15.80;99.90;;;;;;5011858;28;20025;-67
2021/11/16 08:53:41;;;;;;;3.13;0.45;;;15.90;99.90;;;;;;5007233;28;20478;-67
2021/11/16 08:56:15;;;;;;;4.13;0.55;;;15.90;99.90;;;;;;4998453;28;20541;-67
2021/11/16 08:58:43;;;;;;;4.22;0.60;;;15.90;99.90;;;;;;4998630;28;20030;-67
2021/11/16 09:01:12;;;;;;;5.70;1.25;;;15.90;99.90;;;;;;5003396;28;20486;-67
2021/11/16 09:03:46;;;;;;;2.30;0.60;;;15.80;99.90;;;;;;4999940;28;20474;-67
2021/11/16 09:06:21;;;;;;;3.42;1.52;;;15.90;99.90;;;;;;4997186;28;20027;-68
2021/11/16 09:09:12;;;;;;;7.30;1.02;;;15.90;99.90;;;;;;5012762;28;20430;-67
2021/11/16 09:11:54;;;;;;;7.13;1.15;;;15.80;99.90;;;;;;5011261;28;20104;-67
2021/11/16 09:14:21;;;;;;;7.70;1.15;;;15.80;99.90;;;;;;4999831;28;20326;-67
2021/11/16 09:16:49;;;;;;;5.88;0.77;;;15.80;99.90;;;;;;5008855;28;20406;-67
2021/11/16 09:19:25;;;;;;;9.23;1.33;;;15.80;99.90;;;;;;5001553;28;20057;-67
2021/11/16 09:21:52;;;;;;;5.50;0.70;;;15.80;99.90;;;;;;5012171;28;20408;-67
2021/11/16 09:24:19;;;;;;;6.60;1.02;;;15.80;99.90;;;;;;5012906;28;20034;-67
2021/11/16 09:29:21;;;;;;;5.75;1.10;;;15.60;99.90;;;;;;5023327;28;20105;-67
2021/11/16 09:31:53;;;;;;;5.20;0.75;;;15.70;99.90;;;;;;4997992;28;20458;-67
2021/11/16 09:34:23;;;;;;;4.50;0.85;;;15.70;99.90;;;;;;4998363;28;20026;-67
2021/11/16 09:37:04;;;;;;;8.98;1.42;;;15.70;99.90;;;;;;5005941;28;20489;-67
2021/11/16 09:39:44;;;;;;;5.63;1.25;;;15.70;99.90;;;;;;5000711;28;20023;-67
2021/11/16 09:42:31;;;;;;;20.30;1.35;;;15.70;99.90;;;;;;4993141;28;20106;-67
2021/11/16 09:45:06;;;;;;;2.60;0.45;;;15.70;99.90;;;;;;4998016;28;20042;-66
2021/11/16 09:47:36;;;;;;;5.88;0.93;;;15.60;99.90;;;;;;5006097;28;20026;-67
2021/11/16 09:50:06;;;;;;;8.13;0.77;;;15.70;99.90;;;;;;5012847;28;20386;-66
2021/11/16 09:52:43;;;;;;;5.85;0.98;;;15.70;99.90;;;;;;5011642;28;20026;-66
2021/11/16 09:55:19;;;;;;;4.95;0.85;;;15.60;99.90;;;;;;4998585;28;20030;-67
2021/11/16 09:58:02;;;;;;;4.70;1.00;;;15.60;99.90;;;;;;5005933;28;20439;-67
2021/11/16 10:00:46;;;;;;;4.97;0.77;;;15.60;99.90;;;;;;4992709;28;20027;-67
2021/11/16 10:03:17;;;;;;;10.20;1.40;;;15.70;99.90;;;;;;5007480;28;20032;-67
2021/11/16 10:05:48;;;;;;;5.60;0.90;;;15.60;99.90;;;;;;5016160;28;20043;-67
2021/11/16 10:08:19;;;;;;;6.28;0.90;;;15.60;99.90;;;;;;5011810;28;20026;-67
2021/11/16 10:10:50;;;;;;;5.65;0.70;;;15.60;99.90;;;;;;5011945;28;20054;-67
2021/11/16 10:13:22;;;;;;;4.60;0.57;;;15.50;99.90;;;;;;4998471;28;20022;-66
2021/11/16 10:15:53;;;;;;;4.50;0.60;;;15.50;99.90;;;;;;5002731;28;20148;-66
2021/11/16 10:18:23;;;;;;;8.20;0.68;;;15.60;99.90;;;;;;5014329;28;20026;-66
2021/11/16 10:20:55;;;;;;;4.65;0.80;;;15.50;99.90;;;;;;5015623;28;20600;-67
2021/11/16 10:23:46;;;;;;;6.00;0.70;;;15.50;99.90;;;;;;5006587;28;20072;-67
2021/11/16 10:26:14;;;;;;;4.93;0.63;;;15.50;99.90;;;;;;4997391;28;20030;-67
2021/11/16 10:28:45;;;;;;;4.95;0.93;;;15.50;99.90;;;;;;4997709;28;20034;-67
2021/11/16 10:31:13;;;;;;;3.47;1.10;;;15.50;99.90;;;;;;5010201;28;20101;-67
2021/11/16 10:33:49;;;;;;;3.90;0.70;;;15.50;99.90;;;;;;5000502;28;20030;-67
2021/11/16 10:36:20;;;;;;;6.72;1.20;;;15.50;99.90;;;;;;5002501;28;20049;-67
2021/11/16 10:38:57;;;;;;;5.90;0.73;;;15.40;99.90;;;;;;5010102;28;20019;-68
2021/11/16 10:41:27;;;;;;;9.10;1.23;;;15.40;99.90;;;;;;5004508;28;20065;-67
2021/11/16 10:43:56;;;;;;;6.63;0.70;;;15.40;99.90;;;;;;5009610;28;20026;-67
2021/11/16 10:46:27;;;;;;;7.28;1.15;;;15.40;99.90;;;;;;5011943;28;20052;-68
2021/11/16 10:48:58;;;;;;;6.60;0.75;;;15.40;99.90;;;;;;5015451;28;20088;-67
2021/11/16 10:51:34;;;;;;;3.38;1.23;;;15.40;99.90;;;;;;5013458;28;20072;-67
2021/11/16 10:54:03;;;;;;;8.35;1.05;;;15.30;99.90;;;;;;5011588;28;20049;-67
2021/11/16 10:56:34;;;;;;;7.78;0.90;;;15.30;99.90;;;;;;5010284;28;20049;-67
2021/11/16 10:59:11;;;;;;;7.47;0.70;;;15.30;99.90;;;;;;5000457;28;20455;-67
2021/11/16 11:01:54;;;;;;;5.25;0.75;;;15.30;99.90;;;;;;5000943;28;20030;-68
2021/11/16 11:04:32;;;;;;;3.03;0.60;;;15.30;99.90;;;;;;5010690;28;20084;-67
2021/11/16 11:07:13;;;;;;;7.97;1.27;;;15.30;99.90;;;;;;5001227;28;20550;-67
2021/11/16 11:09:41;;;;;;;6.72;1.30;;;15.20;99.90;;;;;;5016775;28;20149;-67
2021/11/16 11:12:38;;;;;;;4.80;0.93;;;15.20;99.90;;;;;;5013018;28;20060;-67
2021/11/16 11:15:43;;;;;;;6.85;1.00;;;15.20;99.90;;;;;;5009273;28;20042;-68
2021/11/16 11:18:12;;;;;;;4.47;0.75;;;15.10;99.90;;;;;;4999877;28;20029;-67
2021/11/16 11:20:42;;;;;;;5.93;0.90;;;15.00;99.90;;;;;;5001160;28;20089;-67
2021/11/16 11:23:40;;;;;;;6.28;1.25;;;15.00;99.90;;;;;;5012430;28;20030;-67
2021/11/16 11:26:46;;;;;;;7.47;0.95;;;15.00;99.90;;;;;;5010562;28;20026;-67
2021/11/16 11:29:41;;;;;;;8.20;1.27;;;15.00;99.90;;;;;;4996063;28;20390;-67
2021/11/16 11:32:14;;;;;;;5.65;1.08;;;14.90;99.90;;;;;;4998893;28;20033;-67
2021/11/16 11:34:48;;;;;;;4.20;0.73;;;14.90;99.90;;;;;;5003280;28;20058;-67
2021/11/16 11:37:25;;;;;;;7.45;1.35;;;14.90;99.90;;;;;;5003555;28;20027;-67
2021/11/16 11:40:27;;;;;;;5.80;0.95;;;14.90;99.90;;;;;;5004548;28;20033;-67
2021/11/16 11:43:06;;;;;;;5.80;1.05;;;15.00;99.90;;;;;;5014687;28;20018;-68
2021/11/16 11:45:39;;;;;;;7.32;0.90;;;15.00;99.90;;;;;;4996293;28;20514;-67
2021/11/16 11:48:21;;;;;;;5.88;0.77;;;15.00;99.90;;;;;;5007244;28;20026;-67
2021/11/16 11:50:55;;;;;;;2.67;0.52;;;14.90;99.90;;;;;;5010257;28;20493;-67
2021/11/16 11:53:26;;;;;;;13.00;1.20;;;15.00;99.90;;;;;;5005041;28;20030;-67
2021/11/16 11:56:05;;;;;;;3.00;0.85;;;15.00;99.90;;;;;;5007186;28;20141;-67
2021/11/16 11:58:37;;;;;;;6.75;1.45;;;15.00;99.90;;;;;;5004434;28;20030;-68
2021/11/16 12:01:07;;;;;;;7.10;0.90;;;15.00;99.90;;;;;;5004565;28;20014;-67
2021/11/16 12:03:37;;;;;;;8.40;0.93;;;15.00;99.90;;;;;;4999904;28;20476;-67
2021/11/16 12:06:05;;;;;;;8.50;1.20;;;15.00;99.90;;;;;;5005351;28;20081;-67
2021/11/16 12:08:33;;;;;;;7.68;1.08;;;15.00;99.90;;;;;;5009792;28;20030;-67
2021/11/16 12:11:00;;;;;;;11.07;1.35;;;14.90;99.90;;;;;;5001393;28;20026;-67
2021/11/16 12:13:32;;;;;;;3.88;0.85;;;14.90;99.90;;;;;;5010646;28;20034;-67
2021/11/16 12:16:11;;;;;;;8.27;0.90;;;14.90;99.90;;;;;;5013834;28;20030;-68
2021/11/16 12:18:46;;;;;;;3.60;0.90;;;14.90;99.90;;;;;;5013735;28;20076;-67
2021/11/16 12:21:33;;;;;;;6.38;1.20;;;14.90;99.90;;;;;;5007365;28;20377;-67
2021/11/16 12:24:07;;;;;;;2.75;0.95;;;14.90;99.90;;;;;;5013241;28;20097;-67
2021/11/16 12:26:54;;;;;;;7.47;0.97;;;14.80;99.90;;;;;;5013839;28;20038;-67
2021/11/16 12:29:26;;;;;;;7.40;0.85;;;14.80;99.90;;;;;;4993322;28;20034;-67
2021/11/16 12:31:55;;;;;;;8.23;1.17;;;14.80;99.90;;;;;;5021699;28;20045;-67
2021/11/16 12:34:47;;;;;;;8.13;1.73;;;14.80;99.90;;;;;;5004081;28;20022;-67
2021/11/16 12:37:28;;;;;;;7.90;1.25;;;14.80;99.90;;;;;;5008363;28;20524;-67
2021/11/16 12:40:02;;;;;;;8.95;1.63;;;14.80;99.90;;;;;;5001547;28;20113;-67
2021/11/16 12:42:30;;;;;;;8.20;2.10;;;14.70;99.90;;;;;;5003220;28;20121;-67
2021/11/16 12:44:59;;;;;;;6.82;1.15;;;14.80;99.90;;;;;;5002086;28;20520;-67
2021/11/16 12:47:32;;;;;;;9.27;1.77;;;14.80;99.90;;;;;;4995249;28;20752;-67
2021/11/16 12:50:09;;;;;;;10.65;0.77;;;14.70;99.90;;;;;;4999351;28;20018;-67
2021/11/16 12:52:45;;;;;;;8.00;1.00;;;14.70;99.90;;;;;;5010549;28;20029;-67
2021/11/16 12:55:33;;;;;;;6.07;0.80;;;14.70;99.90;;;;;;5010963;28;20125;-66
2021/11/16 12:58:23;;;;;;;4.13;0.85;;;14.60;99.90;;;;;;5013313;28;20493;-67
2021/11/16 13:00:59;;;;;;;3.33;1.02;;;14.60;99.90;;;;;;5002060;28;20410;-67
2021/11/16 13:03:53;;;;;;;5.20;1.45;;;14.60;99.90;;;;;;4995099;28;20030;-67
2021/11/16 13:06:20;;;;;;;3.28;0.65;;;14.60;99.90;;;;;;5011242;28;20057;-67
2021/11/16 13:08:49;;;;;;;7.22;0.90;;;14.60;99.90;;;;;;5009915;28;20136;-67
2021/11/16 13:11:40;;;;;;;8.05;1.17;;;14.50;99.90;;;;;;5012721;28;20053;-67
2021/11/16 13:14:10;;;;;;;9.88;1.90;;;14.50;99.90;;;;;;5011649;28;20389;-67
2021/11/16 13:16:38;;;;;;;7.07;1.40;;;14.60;99.90;;;;;;5005468;28;20113;-67
2021/11/16 13:19:06;;;;;;;11.13;2.95;;;14.60;99.90;;;;;;5008070;28;20030;-67
2021/11/16 13:21:39;;;;;;;7.53;1.10;;;14.60;99.90;;;;;;5015238;28;20022;-67
2021/11/16 13:24:11;;;;;;;7.68;1.85;;;14.60;99.90;;;;;;4993773;28;20045;-67
2021/11/16 13:26:49;;;;;;;4.50;1.70;;;14.40;99.90;;;;;;5001620;28;20045;-67
2021/11/16 13:29:22;;;;;;;6.72;1.30;;;14.50;99.90;;;;;;4998386;28;20108;-67
2021/11/16 13:32:03;;;;;;;11.88;1.52;;;14.50;99.90;;;;;;5012086;28;20022;-67
2021/11/16 13:34:41;;;;;;;4.80;0.90;;;14.60;99.90;;;;;;5007254;28;20018;-67
2021/11/16 13:37:22;;;;;;;5.43;1.20;;;14.60;99.90;;;;;;5003569;28;20033;-67
2021/11/16 13:39:52;;;;;;;13.43;1.83;;;14.50;99.90;;;;;;5010287;28;20076;-67
2021/11/16 13:42:23;;;;;;;4.95;1.83;;;14.40;99.90;;;;;;5012049;28;20026;-67
2021/11/16 13:45:04;;;;;;;9.88;1.55;;;14.20;99.90;;;;;;4996750;28;20406;-67
2021/11/16 13:47:45;;;;;;;7.68;1.95;;;14.20;99.90;;;;;;4992990;28;20038;-67
2021/11/16 13:50:26;;;;;;;10.93;2.30;;;14.20;99.90;;;;;;5007591;28;20030;-67
2021/11/16 13:53:00;;;;;;;7.53;1.73;;;14.10;99.90;;;;;;5013306;28;20189;-67
2021/11/16 13:55:34;;;;;;;6.57;2.22;;;14.00;99.90;;;;;;4998857;28;20519;-67
2021/11/16 13:58:07;;;;;;;6.70;2.63;;;14.00;99.90;;;;;;5026236;28;20034;-67
2021/11/16 14:00:39;;;;;;;6.65;1.95;;;14.00;99.90;;;;;;5003678;28;20028;-67
2021/11/16 14:03:12;;;;;;;11.18;2.25;;;14.00;99.90;;;;;;4999132;28;20064;-67
2021/11/16 14:05:47;;;;;;;4.93;1.73;;;14.00;99.90;;;;;;4994482;28;20056;-67
2021/11/16 14:08:17;;;;;;;5.72;1.23;;;13.90;99.90;;;;;;5011239;28;20038;-67
2021/11/16 14:10:57;;;;;;;8.95;1.60;;;13.80;99.90;;;;;;5004950;28;20393;-67
2021/11/16 14:13:34;;;;;;;8.05;1.40;;;13.90;99.90;;;;;;4995429;28;20406;-68
2021/11/16 14:16:09;;;;;;;12.57;1.30;;;14.00;99.90;;;;;;4999673;28;20034;-67
2021/11/16 14:18:39;;;;;;;8.57;1.38;;;13.80;99.90;;;;;;5008385;28;20033;-68
2021/11/16 14:21:17;;;;;;;12.93;2.03;;;13.80;99.90;;;;;;4999527;28;20048;-68
2021/11/16 14:23:48;;;;;;;5.65;1.27;;;13.80;99.90;;;;;;5000069;28;20025;-67
2021/11/16 14:26:27;;;;;;;7.72;2.05;;;13.70;99.90;;;;;;5003917;28;20029;-68
2021/11/16 14:28:55;;;;;;;6.38;1.60;;;13.80;99.90;;;;;;5002956;28;20057;-68
2021/11/16 14:31:25;;;;;;;5.60;1.75;;;13.90;99.90;;;;;;5006662;28;20032;-67
2021/11/16 14:34:19;;;;;;;6.32;1.52;;;13.90;99.90;;;;;;4992885;28;20033;-67
2021/11/16 14:36:51;;;;;;;4.95;1.08;;;13.90;99.90;;;;;;5004057;28;20109;-67
2021/11/16 14:39:34;;;;;;;10.10;1.70;;;13.80;99.90;;;;;;5011920;28;20117;-68
2021/11/16 14:42:14;;;;;;;11.65;1.60;;;13.90;99.90;;;;;;5008608;28;20062;-68
2021/11/16 14:44:51;;;;;;;6.55;1.73;;;13.90;99.90;;;;;;5007359;28;20412;-68
2021/11/16 14:47:22;;;;;;;5.50;1.52;;;13.90;99.90;;;;;;5008085;28;20029;-68
2021/11/16 14:49:55;;;;;;;4.85;1.73;;;13.90;99.90;;;;;;4994112;28;20050;-68
2021/11/16 14:52:33;;;;;;;5.93;1.10;;;13.90;99.90;;;;;;5002565;28;20041;-68
2021/11/16 14:55:10;;;;;;;4.57;0.95;;;14.00;99.90;;;;;;5008075;28;20482;-67
2021/11/16 14:57:45;;;;;;;6.65;1.65;;;14.00;99.90;;;;;;5005844;28;20033;-68
2021/11/16 15:00:31;;;;;;;4.22;1.20;;;14.00;99.90;;;;;;5007500;28;20076;-68
2021/11/16 15:03:01;;;;;;;3.97;1.60;;;14.00;99.90;;;;;;5012845;28;20502;-68
2021/11/16 15:05:31;;;;;;;4.93;1.33;;;14.00;99.90;;;;;;5004998;28;20038;-67
2021/11/16 15:08:27;;;;;;;7.28;1.67;;;14.00;99.90;;;;;;5003027;28;20500;-67
2021/11/16 15:11:04;;;;;;;7.53;1.85;;;14.00;99.90;;;;;;5002206;28;20029;-68
2021/11/16 15:13:34;;;;;;;6.15;1.40;;;14.00;99.90;;;;;;5009618;28;20028;-68
2021/11/16 15:16:19;;;;;;;4.82;1.10;;;14.00;99.90;;;;;;5000298;28;20057;-67
2021/11/16 15:19:22;;;;;;;6.03;1.08;;;13.90;99.90;;;;;;4999942;28;20018;-68
2021/11/16 15:22:08;;;;;;;6.63;1.33;;;14.00;99.90;;;;;;5000858;28;20038;-68
2021/11/16 15:24:53;;;;;;;6.07;1.02;;;14.10;99.90;;;;;;5004715;28;20030;-68
2021/11/16 15:27:20;;;;;;;4.50;1.33;;;14.20;99.90;;;;;;5010449;28;20037;-67